Remanso, Brazil
Current Conditions -  °F | °C
As of 2:00 PM on Friday 19 Dec 2014 (Local Time) from SBPL Reporting Station
Rain Showers Rain Showers  
Wind Chill: 91°   Ceiling: 8000
Heat Index: 98°   Visibility: 6mi
Dew Point: 72°   Wind: 8mph
Humidity: 52%   Direction: 30°NNE
Pressure: NA   Gusts: NA
Location:  9.62°S, 42.08°W
Report Text: SBPL 191700Z 03007KT 9999 VCSH SCT033 FEW040TCU BKN080 33/22 Q1010
Loading
Personal Weather Stations






























Interactive Weather Map New forecast layout! Learn more

10-Day Weather Forecast

Advertisements
Track Severe Weather on mobile